TimeCDT,TemperatureF,Dew PointF,Humidity,Sea Level PressureIn,VisibilityMPH,Wind Direction,Wind SpeedMPH,Gust SpeedMPH,PrecipitationIn,Events,Conditions,WindDirDegrees,DateUTC
12:25 AM,73.4,71.6,94,29.78,6.0,ESE,9.2,-,N/A,,Mostly Cloudy,110,2013-05-01 05:25:00
12:39 AM,73.4,71.6,94,29.78,7.0,SE,8.1,-,N/A,,Scattered Clouds,130,2013-05-01 05:39:00
12:53 AM,73.0,72.0,96,29.78,6.0,SE,8.1,-,N/A,,Scattered Clouds,130,2013-05-01 05:53:00
1:06 AM,73.4,71.6,94,29.78,6.0,SE,8.1,-,N/A,,Mostly Cloudy,130,2013-05-01 06:06:00
1:50 AM,73.4,71.6,94,29.76,6.0,ESE,5.8,-,N/A,,Scattered Clouds,110,2013-05-01 06:50:00
1:53 AM,73.0,72.0,96,29.75,6.0,ESE,5.8,-,N/A,,Partly Cloudy,110,2013-05-01 06:53:00
2:17 AM,73.4,71.6,94,29.74,5.0,ESE,5.8,-,N/A,,Scattered Clouds,120,2013-05-01 07:17:00
2:28 AM,73.4,71.6,94,29.74,5.0,ESE,6.9,-,N/A,,Mostly Cloudy,110,2013-05-01 07:28:00
2:53 AM,73.9,72.0,93,29.74,5.0,East,8.1,-,N/A,,Mostly Cloudy,100,2013-05-01 07:53:00
3:08 AM,73.4,71.6,94,29.75,6.0,ESE,8.1,-,N/A,,Overcast,120,2013-05-01 08:08:00
3:53 AM,73.9,72.0,93,29.75,5.0,SSE,6.9,-,N/A,,Overcast,150,2013-05-01 08:53:00
4:27 AM,73.4,71.6,94,29.74,5.0,SSE,8.1,-,N/A,,Overcast,150,2013-05-01 09:27:00
4:53 AM,73.9,73.0,97,29.75,5.0,SE,4.6,-,N/A,,Overcast,140,2013-05-01 09:53:00
5:53 AM,75.2,73.4,94,29.77,6.0,SE,5.8,-,N/A,,Overcast,140,2013-05-01 10:53:00
6:04 AM,75.2,73.4,94,29.77,6.0,SE,5.8,-,N/A,,Overcast,130,2013-05-01 11:04:00
6:53 AM,73.9,72.0,93,29.77,6.0,East,6.9,-,N/A,,Mostly Cloudy,100,2013-05-01 11:53:00
7:04 AM,73.4,71.6,94,29.77,4.0,East,8.1,-,N/A,,Scattered Clouds,100,2013-05-01 12:04:00
7:53 AM,73.9,72.0,93,29.78,4.0,ESE,10.4,-,N/A,,Clear,110,2013-05-01 12:53:00
8:02 AM,75.2,73.4,94,29.78,4.0,ESE,9.2,-,N/A,,Partly Cloudy,110,2013-05-01 13:02:00
8:53 AM,77.0,73.0,88,29.78,7.0,ESE,12.7,-,N/A,,Mostly Cloudy,120,2013-05-01 13:53:00
9:02 AM,78.8,73.4,83,29.79,8.0,ESE,13.8,-,N/A,,Scattered Clouds,120,2013-05-01 14:02:00
9:53 AM,80.1,72.0,76,29.80,9.0,SE,10.4,-,N/A,,Partly Cloudy,130,2013-05-01 14:53:00
10:20 AM,82.4,71.6,70,29.81,9.0,ESE,10.4,-,N/A,,Mostly Cloudy,120,2013-05-01 15:20:00
10:53 AM,82.4,71.6,70,29.80,10.0,SE,8.1,17.3,N/A,,Mostly Cloudy,130,2013-05-01 15:53:00
11:53 AM,86.0,72.0,63,29.80,10.0,SE,13.8,18.4,N/A,,Overcast,130,2013-05-01 16:53:00
12:53 PM,89.1,72.0,57,29.79,10.0,SE,12.7,-,N/A,,Mostly Cloudy,140,2013-05-01 17:53:00
1:03 PM,89.6,71.6,55,29.80,10.0,ESE,11.5,17.3,N/A,,Scattered Clouds,110,2013-05-01 18:03:00
1:53 PM,90.0,71.1,54,29.79,10.0,ESE,11.5,-,N/A,,Scattered Clouds,110,2013-05-01 18:53:00
2:53 PM,91.9,71.1,50,29.77,10.0,East,10.4,19.6,N/A,,Partly Cloudy,100,2013-05-01 19:53:00
3:53 PM,93.0,70.0,47,29.75,10.0,ESE,11.5,20.7,N/A,,Clear,110,2013-05-01 20:53:00
4:53 PM,91.0,72.0,53,29.75,10.0,SE,17.3,24.2,N/A,,Scattered Clouds,130,2013-05-01 21:53:00
5:53 PM,90.0,72.0,55,29.75,10.0,ESE,17.3,-,N/A,,Partly Cloudy,120,2013-05-01 22:53:00
6:53 PM,87.1,72.0,61,29.76,10.0,ESE,15.0,-,N/A,,Clear,120,2013-05-01 23:53:00
7:53 PM,82.9,72.0,69,29.79,10.0,ESE,11.5,-,N/A,,Clear,120,2013-05-02 00:53:00
8:53 PM,81.0,72.0,74,29.82,10.0,SE,9.2,-,N/A,,Scattered Clouds,130,2013-05-02 01:53:00
9:02 PM,80.6,71.6,74,29.83,10.0,SE,10.4,-,N/A,,Mostly Cloudy,130,2013-05-02 02:02:00
9:53 PM,79.0,72.0,79,29.83,10.0,SE,10.4,-,N/A,,Mostly Cloudy,130,2013-05-02 02:53:00
10:35 PM,77.0,71.6,83,29.85,10.0,SE,12.7,-,N/A,,Scattered Clouds,130,2013-05-02 03:35:00
10:53 PM,75.9,72.0,87,29.83,9.0,ESE,10.4,-,N/A,,Clear,110,2013-05-02 03:53:00
11:13 PM,75.2,71.6,89,29.85,9.0,SE,12.7,-,N/A,,Mostly Cloudy,130,2013-05-02 04:13:00
11:53 PM,75.9,72.0,87,29.86,9.0,SE,11.5,-,N/A,,Overcast,130,2013-05-02 04:53:00